METAR / TAF
Helsinki-Vantaa
HELSINKI/VANTAA
Metar
EFHK 211220Z 11009KT 5000 RA BKN007 13/12 Q1003 BCMG 9999 NSW BKN015

12:20 UTC

Wind: 110° 9kt

Visibility: 5000 m

Sky: BKN 700 ft

Temp: 13 deg C / 55.4 deg F

Dewpoint: 12 deg C / 53.6 deg F

Pressure: 1003 hPa

TAF
TAF AMD EFHK 211224Z 2112/2212 13012KT 5000 RA BKN007 BECMG 2112/2114 9999 NSW BKN015 TEMPO 2121/2202 28010KT 4000 RA BKN005 BKN020CB PROB30 TEMPO 2122/2202 TS BECMG 2203/2205 20015G25KT BKN015TCU
Helsinki, Malmi
HELSINKI/MALMI
Turku
TURKU/ABO
Metar
EFTU 211220Z AUTO 10008KT 6000 RA BKN004/// BKN014/// OVC023/// 12/12 Q1000

12:20 UTC

Wind: 100° 8kt

Visibility: 6000 m

Sky: BKN 400 ft

Temp: 12 deg C / 53.6 deg F

Dewpoint: 12 deg C / 53.6 deg F

Pressure: 1000 hPa

TAF
TAF AMD EFTU 211214Z 2112/2212 12008KT 9999 -RA BKN015 TEMPO 2112/2212 6000 SHRA BKN008 SCT050CB PROB30 TEMPO 2112/2114 BKN004 BECMG 2114/2116 18010KT
Tampere, Pirkkala
TAMPERE/PIRKKALA
Metar
EFTP 211220Z 11005KT 9999 -RA SCT042 BKN058 14/10 Q1003

12:20 UTC

Wind: 110° 5kt

Visibility: 9999 m

Sky: SCT 4200 ft

Temp: 14 deg C / 57.2 deg F

Dewpoint: 10 deg C / 50 deg F

Pressure: 1003 hPa

TAF
TAF EFTP 211137Z 2112/2212 14008KT 9999 BKN045 TEMPO 2112/2115 RA TEMPO 2115/2121 7000 BKN012 TEMPO 2121/2209 6000 SHRA BKN012 BKN030 SCT040CB PROB30 2203/2206 TS BECMG 2206/2209 22012KT
Maarianhamina
MARIEHAMN/ALAND
Metar
EFMA 211220Z 09005KT 050V130 9999 OVC005 14/13 Q0998

12:20 UTC

Wind: 90° 5kt

Visibility: 9999 m

Sky: OVC 500 ft

Temp: 14 deg C / 57.2 deg F

Dewpoint: 13 deg C / 55.4 deg F

Pressure: 998 hPa

TAF
TAF EFMA 211135Z 2112/2121 10007KT 9999 SCT007 BKN200 BECMG 2112/2114 19012KT PROB30 TEMPO 2112/2121 SHRA BKN009 SCT020CB
Pori
PORI (MIL/CIV)
Metar
EFPO 211220Z AUTO 13013KT 9999 FEW069/// BKN080/// 16/05 Q1001

12:20 UTC

Wind: 130° 13kt

Visibility: 9999 m

Sky: FEW 6900 ft

Temp: 16 deg C / 60.8 deg F

Dewpoint: 5 deg C / 41 deg F

Pressure: 1001 hPa

TAF
TAF EFPO 211141Z 2112/2114 15010KT 9999 FEW040 OVC070 TEMPO 2112/2114 RA
Vaasa
VAASA
Metar
EFVA 211220Z AUTO 32006KT 9999 OVC090/// 17/03 Q1002

12:20 UTC

Wind: 320° 6kt

Visibility: 9999 m

Sky: OVC 9000 ft

Temp: 17 deg C / 62.6 deg F

Dewpoint: 3 deg C / 37.4 deg F

Pressure: 1002 hPa

TAF
TAF EFVA 211138Z 2112/2212 35008KT 9999 FEW040 BKN060 TEMPO 2116/2121 RA TEMPO 2121/2203 5000 RA BECMG 2203/2206 02015G25KT TEMPO 2203/2212 4000 RA
Kruunupyy
KRUUNUPYY
Metar
EFKK 211220Z AUTO 29010KT 260V340 CAVOK 16/03 Q1003

12:20 UTC

Wind: 290° 10kt

Visibility:

Sky:

Temp: 16 deg C / 60.8 deg F

Dewpoint: 3 deg C / 37.4 deg F

Pressure: 1003 hPa

TAF
TAF EFKK 211141Z 2112/2118 30008KT CAVOK
Jyväskylä, Tikkakoski
JYVASKYLA (MIL/C
Metar
EFJY 211220Z AUTO 16007KT 110V200 CAVOK 19/01 Q1002

12:20 UTC

Wind: 160° 7kt

Visibility:

Sky:

Temp: 19 deg C / 66.2 deg F

Dewpoint: 1 deg C / 33.8 deg F

Pressure: 1002 hPa

TAF
TAF EFJY 211137Z 2112/2212 14008KT 9999 FEW040 BKN050 TEMPO 2115/2118 RA TEMPO 2118/2206 6000 SHRA BKN008 SCT030CB PROB30 TEMPO 2200/2206 TS BECMG 2206/2208 20012G22KT
Kuopio
KUOPIO (MIL/CIV)
Metar
EFKU 211220Z AUTO 22007KT 180V260 CAVOK 19/03 Q1003

12:20 UTC

Wind: 220° 7kt

Visibility:

Sky:

Temp: 19 deg C / 66.2 deg F

Dewpoint: 3 deg C / 37.4 deg F

Pressure: 1003 hPa

TAF
TAF EFKU 211128Z 2112/2212 20009KT CAVOK TEMPO 2117/2122 7000 SHRA SCT030CB BECMG 2122/2124 10010KT TEMPO 2124/2206 4000 SHRA BKN006 BKN020CB BECMG 2204/2206 17012KT TEMPO 2206/2212 16015G28KT
Joensuu
JOENSUU
Metar
EFJO 211220Z AUTO 23006KT 170V320 CAVOK 20/02 Q1003

12:20 UTC

Wind: 230° 6kt

Visibility:

Sky:

Temp: 20 deg C / 68 deg F

Dewpoint: 2 deg C / 35.6 deg F

Pressure: 1003 hPa

TAF
TAF EFJO 211128Z 2112/2116 20009KT CAVOK
Halli
HALLI (FIN-AFB)
Metar
EFHA 211220Z AUTO 13008KT CAVOK 17/M01 Q1002

12:20 UTC

Wind: 130° 8kt

Visibility:

Sky:

Temp: 17 deg C / 62.6 deg F

Dewpoint: -1 deg C / 30.2 deg F

Pressure: 1002 hPa

TAF
TAF EFHA 211141Z 2112/2114 16008KT CAVOK TEMPO 2112/2114 RA
Utti
UTTI (FIN-AFB)
Metar
EFUT 211220Z AUTO 13009KT 090V200 9999 FEW033 17/08 Q1003

12:20 UTC

Wind: 130° 9kt

Visibility: 9999 m

Sky: FEW 3300 ft

Temp: 17 deg C / 62.6 deg F

Dewpoint: 8 deg C / 46.4 deg F

Pressure: 1003 hPa

TAF
TAF EFUT 210231Z 2103/2112 18003KT CAVOK
Mikkeli
MIKKELI
Metar
EFMI 211220Z AUTO 10004KT 030V170 CAVOK 19/03 Q1003

12:20 UTC

Wind: 100° 4kt

Visibility:

Sky:

Temp: 19 deg C / 66.2 deg F

Dewpoint: 3 deg C / 37.4 deg F

Pressure: 1003 hPa

Savonlinna
SAVONLINNA (AUT)
Metar
EFSA 211120Z 17006KT 070V240 CAVOK 19/01 Q1004

11:20 UTC

Wind: 170° 6kt

Visibility:

Sky:

Temp: 19 deg C / 66.2 deg F

Dewpoint: 1 deg C / 33.8 deg F

Pressure: 1004 hPa

TAF
TAF EFSA 211128Z 2112/2119 18005KT CAVOK
Lappeenranta
LAPPEENRANTA
Metar
EFLP 211220Z AUTO 18007KT 120V250 CAVOK 18/04 Q1004

12:20 UTC

Wind: 180° 7kt

Visibility:

Sky:

Temp: 18 deg C / 64.4 deg F

Dewpoint: 4 deg C / 39.2 deg F

Pressure: 1004 hPa

TAF
TAF EFLP 211128Z 2112/2115 20006KT CAVOK
Oulu
OULU/ULEABORG
Metar
EFOU 211220Z AUTO 28011KT 250V310 CAVOK 16/05 Q1002

12:20 UTC

Wind: 280° 11kt

Visibility:

Sky:

Temp: 16 deg C / 60.8 deg F

Dewpoint: 5 deg C / 41 deg F

Pressure: 1002 hPa

TAF
TAF EFOU 211124Z 2112/2212 27012KT CAVOK BECMG 2116/2118 02005KT TEMPO 2204/2206 6000 SHRA SCT030CB TEMPO 2206/2212 05020G30KT 3000 SHRA SCT030CB
Kemi
KEMI
Metar
EFKE 211220Z AUTO 21011KT 170V240 CAVOK 15/07 Q1001

12:20 UTC

Wind: 210° 11kt

Visibility:

Sky:

Temp: 15 deg C / 59 deg F

Dewpoint: 7 deg C / 44.6 deg F

Pressure: 1001 hPa

TAF
TAF EFKE 211124Z 2112/2121 21012KT CAVOK
Rovaniemi
ROVANIEMI (CIV/M
Metar
EFRO 211231Z AUTO 27007KT CAVOK 17/03 Q1000

12:31 UTC

Wind: 270° 7kt

Visibility:

Sky:

Temp: 17 deg C / 62.6 deg F

Dewpoint: 3 deg C / 37.4 deg F

Pressure: 1000 hPa

TAF
TAF EFRO 211124Z 2112/2212 24004KT 9999 SCT045 TEMPO 2112/2115 FEW050CB TEMPO 2207/2209 SCT040TCU TEMPO 2209/2212 06015G25KT 4000 RA SCT040CB
Enontekiö
ENONTEKIO
Metar
EFET 211220Z AUTO 20009KT 170V230 9999 BKN022 10/06 Q0998

12:20 UTC

Wind: 200° 9kt

Visibility: 9999 m

Sky: BKN 2200 ft

Temp: 10 deg C / 50 deg F

Dewpoint: 6 deg C / 42.8 deg F

Pressure: 998 hPa

Ivalo
IVALO
Metar
EFIV 211220Z AUTO 23009KT 9999 OVC019 12/07 Q0999

12:20 UTC

Wind: 230° 9kt

Visibility: 9999 m

Sky: OVC 1900 ft

Temp: 12 deg C / 53.6 deg F

Dewpoint: 7 deg C / 44.6 deg F

Pressure: 999 hPa

TAF
TAF AMD EFIV 210828Z 2108/2110 22008KT 9999 -RA OVC005 TEMPO 2108/2110 4500 RA OVC003
Kittilä
KITTILA
Metar
EFKT 211220Z AUTO 24013KT 210V290 9999 SCT042 15/04 Q0999

12:20 UTC

Wind: 240° 13kt

Visibility: 9999 m

Sky: SCT 4200 ft

Temp: 15 deg C / 59 deg F

Dewpoint: 4 deg C / 39.2 deg F

Pressure: 999 hPa

TAF
TAF EFKT 210827Z 2109/2111 26012KT 9999 BKN030
Kuusamo
KUUSAMO
Metar
EFKS 211220Z AUTO 26010KT 220V290 CAVOK 17/02 Q1000

12:20 UTC

Wind: 260° 10kt

Visibility:

Sky:

Temp: 17 deg C / 62.6 deg F

Dewpoint: 2 deg C / 35.6 deg F

Pressure: 1000 hPa

TAF
TAF EFKS 210827Z 2109/2113 27013KT 9999 BKN045
Kajaani
KAJAANI
Metar
EFKI 211220Z AUTO 30006KT 260V340 CAVOK 17/04 Q1002

12:20 UTC

Wind: 300° 6kt

Visibility:

Sky:

Temp: 17 deg C / 62.6 deg F

Dewpoint: 4 deg C / 39.2 deg F

Pressure: 1002 hPa

TAF
TAF EFKI 211128Z 2112/2118 28009KT CAVOK PROB30 2114/2118 SCT060TCU
Varkaus
VARKAUS
Seinäjoki
SEINAJOKI-ILMAJO
Metar
EFSI 211220Z AUTO 06005KT 360V100 CAVOK 18/03 Q1001

12:20 UTC

Wind: 60° 5kt

Visibility:

Sky:

Temp: 18 deg C / 64.4 deg F

Dewpoint: 3 deg C / 37.4 deg F

Pressure: 1001 hPa

Print Friendly, PDF & Email